Time;durP1;ratioP1;P1;durP2;ratioP2;P2;SDS_P1;SDS_P2;PMS_P1;PMS_P2;Temp;Humidity;BMP_temperature;BMP_pressure;BME280_temperature;BME280_humidity;BME280_pressure;Samples;Min_cycle;Max_cycle;Signal;HPM_P1;HPM_P2
2021/11/27 00:02:56;;;;;;;0.98;0.77;;;20.60;26.10;21.00;91420.00;;;;10340650;28;46913;-64
2021/11/27 00:07:57;;;;;;;1.08;0.80;;;20.60;26.20;21.00;91396.00;;;;10323937;28;48522;-65
2021/11/27 00:13:00;;;;;;;0.70;0.70;;;20.60;26.20;21.00;91406.00;;;;10340622;28;47282;-63
2021/11/27 00:18:01;;;;;;;1.05;0.80;;;20.60;26.10;21.00;91390.00;;;;10340305;28;45380;-62
2021/11/27 00:23:02;;;;;;;1.52;0.70;;;20.60;26.10;21.00;91373.00;;;;10358305;28;46293;-65
2021/11/27 00:28:03;;;;;;;1.10;0.90;;;20.60;26.00;21.00;91370.00;;;;10340282;28;46084;-63
2021/11/27 00:33:05;;;;;;;0.80;0.65;;;20.60;26.00;21.00;91370.00;;;;10356173;28;47268;-64
2021/11/27 00:38:07;;;;;;;0.80;0.50;;;20.60;26.00;21.00;91350.00;;;;10339373;28;46164;-62
2021/11/27 00:43:09;;;;;;;0.68;0.40;;;20.60;26.00;21.00;91356.00;;;;10322828;28;48107;-64
2021/11/27 00:48:12;;;;;;;0.90;0.70;;;20.60;26.10;21.00;91348.00;;;;10338985;28;46496;-64
2021/11/27 00:53:13;;;;;;;0.63;0.45;;;20.60;26.00;21.00;91333.00;;;;10322709;28;47420;-65
2021/11/27 00:58:15;;;;;;;0.85;0.60;;;20.60;26.00;21.00;91317.00;;;;10338361;28;45352;-65
2021/11/27 01:03:18;;;;;;;0.60;0.50;;;20.60;26.10;21.00;91316.00;;;;10323057;28;47444;-64
2021/11/27 01:08:20;;;;;;;1.05;0.50;;;20.60;26.10;21.00;91308.00;;;;10337812;28;48268;-63
2021/11/27 01:13:22;;;;;;;0.95;0.55;;;20.60;25.90;21.00;91298.00;;;;10339059;28;47107;-65
2021/11/27 01:18:23;;;;;;;0.57;0.40;;;20.60;26.00;21.00;91289.00;;;;10338389;28;45189;-61
2021/11/27 01:23:26;;;;;;;0.60;0.38;;;20.50;25.90;21.00;91288.00;;;;10338587;28;46730;-62
2021/11/27 01:28:26;;;;;;;0.40;0.32;;;20.50;26.50;21.00;91289.00;;;;10321579;28;48382;-62
2021/11/27 01:33:29;;;;;;;0.30;0.30;;;20.60;25.90;20.90;91285.00;;;;10356459;28;45207;-61
2021/11/27 01:38:31;;;;;;;0.60;0.40;;;20.50;25.90;20.90;91267.00;;;;10338073;28;45232;-63
2021/11/27 01:43:33;;;;;;;0.20;0.20;;;20.50;25.80;21.00;91267.00;;;;10321380;28;47263;-64
2021/11/27 01:48:35;;;;;;;0.50;0.30;;;20.50;25.80;21.00;91273.00;;;;10354754;28;45280;-63
2021/11/27 01:53:40;;;;;;;0.63;0.30;;;20.60;25.90;21.00;91270.00;;;;10337558;28;45343;-63
2021/11/27 01:58:43;;;;;;;0.50;0.30;;;20.50;26.00;20.90;91285.00;;;;10317155;28;48192;-65
2021/11/27 02:03:44;;;;;;;0.52;0.30;;;20.60;26.00;20.90;91272.00;;;;10331255;28;45459;-64
2021/11/27 02:08:49;;;;;;;0.10;0.10;;;20.50;25.80;20.90;91271.00;;;;10335836;28;46499;-63
2021/11/27 02:13:50;;;;;;;0.47;0.30;;;20.50;25.90;20.90;91273.00;;;;10354621;28;45344;-63
2021/11/27 02:18:51;;;;;;;0.50;0.30;;;20.50;25.80;20.90;91253.00;;;;10319136;28;48122;-63
2021/11/27 02:23:54;;;;;;;0.30;0.20;;;20.50;26.00;20.90;91242.00;;;;10320120;28;46861;-62
2021/11/27 02:29:08;;;;;;;0.75;0.30;;;20.50;25.70;20.90;91244.00;;;;10335655;28;45254;-62
2021/11/27 02:34:09;;;;;;;0.22;0.22;;;20.50;25.90;20.90;91241.00;;;;10319934;28;48133;-65
2021/11/27 02:39:11;;;;;;;0.77;0.28;;;20.50;25.80;20.90;91245.00;;;;10353768;28;46414;-62
2021/11/27 02:44:12;;;;;;;0.30;0.30;;;20.50;25.80;20.90;91237.00;;;;10336179;28;45686;-63
2021/11/27 02:49:13;;;;;;;0.30;0.20;;;20.50;25.80;20.90;91223.00;;;;10335796;28;45369;-62
2021/11/27 02:54:14;;;;;;;0.20;0.10;;;20.50;25.80;20.90;91218.00;;;;10335765;28;45432;-62
2021/11/27 02:59:22;;;;;;;0.10;0.10;;;20.50;25.80;20.90;91208.00;;;;10334434;28;45283;-65
2021/11/27 03:04:25;;;;;;;0.32;0.28;;;20.50;25.80;20.90;91215.00;;;;10334982;28;46196;-62
2021/11/27 03:09:26;;;;;;;0.15;0.15;;;20.50;26.00;20.90;91200.00;;;;10355319;28;46707;-62
2021/11/27 03:14:28;;;;;;;0.20;0.20;;;20.50;26.00;20.90;91189.00;;;;10360633;28;45526;-62
2021/11/27 03:19:35;;;;;;;0.38;0.28;;;20.50;25.90;20.90;91192.00;;;;10342492;28;45452;-63
2021/11/27 03:24:37;;;;;;;0.20;0.20;;;20.50;25.90;20.90;91202.00;;;;10342680;28;45356;-65
2021/11/27 03:29:38;;;;;;;0.52;0.30;;;20.50;26.00;20.90;91207.00;;;;10341696;28;45470;-63
2021/11/27 03:34:41;;;;;;;0.10;0.10;;;20.50;26.00;20.90;91194.00;;;;10359943;28;45220;-62
2021/11/27 03:39:43;;;;;;;0.15;0.13;;;20.50;25.90;20.90;91204.00;;;;10341148;28;45237;-64
2021/11/27 03:44:45;;;;;;;0.15;0.10;;;20.50;25.90;20.90;91194.00;;;;10341528;28;45247;-62
2021/11/27 03:49:46;;;;;;;0.10;0.10;;;20.40;25.90;20.90;91202.00;;;;10341122;28;45356;-63
2021/11/27 03:54:48;;;;;;;0.20;0.10;;;20.40;26.00;20.80;91203.00;;;;10340898;28;45254;-63
2021/11/27 03:59:48;;;;;;;0.10;0.10;;;20.40;25.90;20.90;91205.00;;;;10357679;28;45379;-63
2021/11/27 04:04:50;;;;;;;0.20;0.20;;;20.40;25.90;20.80;91206.00;;;;10341156;28;47335;-63
2021/11/27 04:09:50;;;;;;;0.10;0.10;;;20.40;26.00;20.80;91193.00;;;;10340627;28;46051;-63
2021/11/27 04:14:51;;;;;;;0.60;0.10;;;20.40;26.00;20.80;91189.00;;;;10340185;28;47006;-62
2021/11/27 04:19:52;;;;;;;0.17;0.13;;;20.40;25.90;20.80;91196.00;;;;10323310;28;46638;-64
2021/11/27 04:24:52;;;;;;;0.20;0.17;;;20.40;25.90;20.80;91228.00;;;;10323828;28;47381;-63
2021/11/27 04:29:53;;;;;;;0.10;0.10;;;20.40;25.90;20.80;91219.00;;;;10323937;28;47095;-64
2021/11/27 04:34:54;;;;;;;0.10;0.10;;;20.40;25.90;20.80;91201.00;;;;10339874;28;45295;-63
2021/11/27 04:39:54;;;;;;;0.20;0.20;;;20.40;26.00;20.80;91194.00;;;;10356151;28;47034;-63
2021/11/27 04:44:55;;;;;;;0.10;0.10;;;20.40;25.90;20.80;91215.00;;;;10340216;28;45382;-63
2021/11/27 04:49:56;;;;;;;0.03;0.00;;;20.40;26.00;20.80;91222.00;;;;10356892;28;45245;-63
2021/11/27 04:54:56;;;;;;;0.10;0.10;;;20.40;26.00;20.80;91212.00;;;;10339498;28;45267;-63
2021/11/27 04:59:57;;;;;;;0.00;0.00;;;20.40;26.00;20.80;91220.00;;;;10355205;28;47789;-62
2021/11/27 05:04:58;;;;;;;0.10;0.10;;;20.50;26.10;20.80;91225.00;;;;10339525;28;45392;-64
2021/11/27 05:09:59;;;;;;;0.10;0.00;;;20.40;26.00;20.90;91225.00;;;;10321929;28;47573;-63
2021/11/27 05:15:00;;;;;;;0.35;0.10;;;20.40;26.10;20.90;91209.00;;;;10356055;28;46160;-63
2021/11/27 05:20:03;;;;;;;0.30;0.28;;;20.50;26.10;21.00;91208.00;;;;10321754;28;48297;-64
2021/11/27 05:25:06;;;;;;;0.03;0.03;;;20.50;26.10;20.90;91212.00;;;;10322225;28;47387;-62
2021/11/27 05:30:12;;;;;;;0.00;0.00;;;20.50;26.10;21.00;91219.00;;;;10337850;28;46314;-62
2021/11/27 05:35:12;;;;;;;0.10;0.05;;;20.50;26.10;21.00;91210.00;;;;10321725;28;46649;-63
2021/11/27 05:40:14;;;;;;;0.20;0.00;;;20.60;26.10;21.00;91211.00;;;;10354089;28;47269;-64
2021/11/27 05:45:15;;;;;;;0.00;0.00;;;20.60;26.10;21.10;91226.00;;;;10337344;28;46310;-63
2021/11/27 05:50:16;;;;;;;0.10;0.00;;;20.60;26.10;21.10;91205.00;;;;10354767;28;46211;-63
2021/11/27 05:55:16;;;;;;;0.00;0.00;;;20.60;26.10;21.10;91229.00;;;;10337206;28;46135;-62
2021/11/27 06:00:18;;;;;;;0.00;0.00;;;20.60;26.10;21.10;91217.00;;;;10354501;28;45955;-62
2021/11/27 06:05:19;;;;;;;0.05;0.00;;;20.70;26.10;21.10;91235.00;;;;10337125;28;46645;-63
2021/11/27 06:10:20;;;;;;;0.17;0.00;;;20.70;26.10;21.10;91236.00;;;;10353831;28;45568;-62
2021/11/27 06:15:21;;;;;;;0.05;0.05;;;20.70;26.10;21.10;91241.00;;;;10336792;28;46453;-62
2021/11/27 06:20:22;;;;;;;0.00;0.00;;;20.70;26.10;21.20;91236.00;;;;10336171;28;46443;-63
2021/11/27 06:25:25;;;;;;;0.10;0.10;;;20.80;26.10;21.20;91223.00;;;;10336002;28;45320;-63
2021/11/27 06:30:26;;;;;;;0.10;0.10;;;20.80;26.20;21.20;91241.00;;;;10335940;28;45334;-63
2021/11/27 06:35:27;;;;;;;0.20;0.10;;;20.80;26.20;21.20;91244.00;;;;10335895;28;45307;-62
2021/11/27 06:40:27;;;;;;;0.00;0.00;;;20.80;26.20;21.20;91238.00;;;;10353362;28;45126;-63
2021/11/27 06:45:30;;;;;;;0.10;0.00;;;20.80;26.20;21.20;91267.00;;;;10335201;28;46291;-63
2021/11/27 06:50:31;;;;;;;0.20;0.20;;;20.80;26.20;21.20;91246.00;;;;10335892;28;46001;-63
2021/11/27 06:55:32;;;;;;;0.25;0.10;;;20.80;26.20;21.20;91261.00;;;;10351551;28;47149;-63
2021/11/27 07:00:32;;;;;;;0.10;0.10;;;20.80;26.20;21.20;91251.00;;;;10318781;28;46844;-63
2021/11/27 07:05:33;;;;;;;0.00;0.00;;;20.80;26.20;21.20;91268.00;;;;10352959;28;46410;-63
2021/11/27 07:10:35;;;;;;;0.00;0.00;;;20.80;26.20;21.20;91267.00;;;;10335134;28;45325;-63
2021/11/27 07:15:36;;;;;;;0.68;0.10;;;20.80;26.20;21.30;91282.00;;;;10334506;28;45402;-62
2021/11/27 07:20:36;;;;;;;0.20;0.17;;;20.80;26.20;21.30;91299.00;;;;10334396;28;46814;-63
2021/11/27 07:25:40;;;;;;;0.10;0.10;;;20.80;26.20;21.30;91285.00;;;;10352306;28;46483;-62
2021/11/27 07:30:41;;;;;;;0.05;0.05;;;20.80;26.20;21.30;91289.00;;;;10352830;28;45380;-64
2021/11/27 07:35:42;;;;;;;0.10;0.05;;;20.90;26.30;21.30;91298.00;;;;10334256;28;46315;-63
2021/11/27 07:40:43;;;;;;;1.75;0.20;;;20.90;26.20;21.30;91303.00;;;;10352060;28;45140;-62
2021/11/27 07:45:44;;;;;;;0.20;0.10;;;20.90;26.20;21.30;91319.00;;;;10350148;28;45597;-63
2021/11/27 07:50:45;;;;;;;0.20;0.10;;;20.90;26.30;21.30;91327.00;;;;10331039;28;46310;-62
2021/11/27 07:55:46;;;;;;;0.10;0.10;;;20.90;26.30;21.30;91331.00;;;;10354620;28;45450;-62
2021/11/27 08:00:47;;;;;;;0.10;0.10;;;20.90;26.30;21.30;91335.00;;;;10353349;28;47217;-62
2021/11/27 08:05:48;;;;;;;0.15;0.10;;;20.90;26.30;21.30;91316.00;;;;10332246;28;46670;-65
2021/11/27 08:10:48;;;;;;;0.00;0.00;;;20.90;26.40;21.40;91332.00;;;;10358128;28;45271;-62
2021/11/27 08:15:49;;;;;;;0.10;0.10;;;20.90;26.50;21.30;91326.00;;;;10340292;28;46317;-63
2021/11/27 08:20:50;;;;;;;1.60;0.10;;;20.90;26.40;21.30;91326.00;;;;10340393;28;46657;-62
2021/11/27 08:25:52;;;;;;;0.43;0.10;;;20.90;27.20;21.40;91324.00;;;;10339706;28;45454;-62
2021/11/27 08:30:52;;;;;;;0.20;0.20;;;20.90;26.60;21.30;91313.00;;;;10323314;28;47846;-62
2021/11/27 08:35:53;;;;;;;0.30;0.10;;;20.90;26.60;21.40;91317.00;;;;10339390;28;46564;-62
2021/11/27 08:40:53;;;;;;;0.93;0.30;;;20.90;26.70;21.30;91317.00;;;;10339210;28;46445;-63
2021/11/27 08:45:54;;;;;;;0.10;0.10;;;20.90;26.60;21.40;91334.00;;;;10339164;28;45688;-62
2021/11/27 08:50:55;;;;;;;0.28;0.20;;;20.90;27.00;21.40;91339.00;;;;10339338;28;45429;-63
2021/11/27 08:55:56;;;;;;;0.32;0.10;;;20.90;27.30;21.40;91347.00;;;;10338683;28;47016;-63
2021/11/27 09:00:57;;;;;;;0.30;0.20;;;21.00;27.40;21.30;91333.00;;;;10356449;28;46195;-63
2021/11/27 09:05:57;;;;;;;0.30;0.20;;;20.90;27.40;21.40;91344.00;;;;10338083;28;48043;-63
2021/11/27 09:10:59;;;;;;;0.43;0.10;;;20.90;27.50;21.30;91342.00;;;;10331246;28;47262;-63
2021/11/27 09:16:00;;;;;;;0.30;0.20;;;20.90;27.50;21.30;91345.00;;;;10321601;28;46547;-63
2021/11/27 09:21:02;;;;;;;0.10;0.10;;;20.90;27.70;21.30;91339.00;;;;10323159;28;45173;-62
2021/11/27 09:26:03;;;;;;;0.08;0.08;;;20.90;27.80;21.30;91384.00;;;;10337802;28;45583;-62
2021/11/27 09:31:04;;;;;;;1.77;0.20;;;20.90;28.00;21.30;91389.00;;;;10337661;28;45488;-62
2021/11/27 09:36:07;;;;;;;0.55;0.10;;;20.90;28.10;21.40;91390.00;;;;10337538;28;45339;-62
2021/11/27 09:41:21;;;;;;;0.10;0.00;;;20.90;28.80;21.40;91405.00;;;;10337542;28;46361;-62
2021/11/27 09:46:24;;;;;;;0.15;0.00;;;20.90;28.50;21.40;91411.00;;;;10338134;28;46483;-62
2021/11/27 09:51:28;;;;;;;0.40;0.20;;;21.00;28.50;21.40;91418.00;;;;10337166;28;46394;-62
2021/11/27 09:56:30;;;;;;;0.10;0.10;;;21.00;28.40;21.40;91414.00;;;;10336623;28;45194;-62
2021/11/27 10:01:34;;;;;;;1.83;0.22;;;21.00;28.50;21.40;91419.00;;;;10336836;28;45457;-63
2021/11/27 10:06:39;;;;;;;1.95;0.30;;;21.00;28.20;21.30;91428.00;;;;10321129;28;46791;-63
2021/11/27 10:11:41;;;;;;;0.75;0.30;;;21.00;28.40;21.40;91426.00;;;;10354720;28;45535;-63
2021/11/27 10:16:56;;;;;;;0.95;0.20;;;21.00;28.40;21.40;91417.00;;;;10353417;28;45488;-63
2021/11/27 10:22:02;;;;;;;2.13;0.43;;;21.00;28.60;21.40;91432.00;;;;10336726;28;47010;-63
2021/11/27 10:27:16;;;;;;;1.30;0.40;;;21.00;28.60;21.40;91414.00;;;;10336428;28;45355;-63
2021/11/27 10:32:18;;;;;;;2.30;0.30;;;21.00;28.80;21.40;91423.00;;;;10335252;28;45300;-63
2021/11/27 10:37:49;;;;;;;1.08;0.30;;;21.00;28.70;21.40;91428.00;;;;10334708;28;45538;-63
2021/11/27 10:42:54;;;;;;;1.10;0.40;;;21.00;28.50;21.40;91432.00;;;;10335592;28;46571;-66
2021/11/27 10:48:17;;;;;;;2.30;0.80;;;21.00;29.10;21.40;91454.00;;;;10319543;28;47131;-63
2021/11/27 10:53:31;;;;;;;2.28;1.02;;;21.00;28.80;21.30;91441.00;;;;10336793;28;46357;-64
2021/11/27 10:58:32;;;;;;;11.10;1.45;;;21.00;27.90;21.30;91440.00;;;;10336034;28;45238;-64
2021/11/27 11:03:37;;;;;;;2.75;0.93;;;20.90;27.90;21.30;91435.00;;;;10378186;22;45801;-62
2021/11/27 11:08:40;;;;;;;2.90;0.57;;;20.90;27.80;21.30;91449.00;;;;10377014;28;45557;-62
2021/11/27 11:13:41;;;;;;;2.58;0.47;;;20.90;27.40;21.20;91464.00;;;;10376556;28;45559;-62
2021/11/27 11:18:42;;;;;;;0.40;0.20;;;20.90;27.40;21.20;91443.00;;;;10394150;28;46381;-61
2021/11/27 11:23:45;;;;;;;1.95;0.30;;;20.80;27.60;21.30;91461.00;;;;10376472;28;45956;-62
2021/11/27 11:28:58;;;;;;;3.42;0.20;;;20.90;27.80;21.30;91486.00;;;;10340582;28;45295;-61
2021/11/27 11:34:01;;;;;;;1.60;0.32;;;20.90;28.00;21.40;91493.00;;;;10341627;28;45130;-61
2021/11/27 11:39:03;;;;;;;1.00;0.30;;;20.90;28.00;21.40;91524.00;;;;10341917;28;45412;-61
2021/11/27 11:44:04;;;;;;;1.00;0.40;;;20.90;28.20;21.40;91525.00;;;;10342160;28;45278;-61
2021/11/27 11:49:06;;;;;;;1.30;0.25;;;21.00;28.20;21.40;91504.00;;;;10341699;28;45384;-61
2021/11/27 11:54:08;;;;;;;0.70;0.20;;;21.00;28.20;21.40;91517.00;;;;10341605;28;46872;-61
2021/11/27 11:59:27;;;;;;;1.08;0.40;;;20.90;28.30;21.30;91512.00;;;;10341737;28;45439;-61
2021/11/27 12:04:28;;;;;;;2.80;0.50;;;21.00;28.00;21.30;91522.00;;;;10340436;28;47228;-61
2021/11/27 12:09:29;;;;;;;3.53;0.50;;;21.00;27.90;21.30;91505.00;;;;10341310;28;45376;-62
2021/11/27 12:14:34;;;;;;;4.75;0.40;;;20.90;27.90;21.30;91493.00;;;;10341026;28;47259;-63
2021/11/27 12:19:38;;;;;;;1.50;0.30;;;20.90;27.80;21.30;91508.00;;;;10340656;28;47361;-62
2021/11/27 12:24:40;;;;;;;1.45;0.35;;;20.90;27.60;21.30;91506.00;;;;10360511;28;45497;-63
2021/11/27 12:30:07;;;;;;;0.82;0.20;;;20.90;27.30;21.30;91505.00;;;;10379866;28;45247;-64
2021/11/27 12:35:26;;;;;;;2.05;0.20;;;20.90;27.40;21.30;91502.00;;;;10399503;28;45468;-63
2021/11/27 12:40:40;;;;;;;0.40;0.13;;;20.90;27.30;21.20;91521.00;;;;10396756;28;47147;-64
2021/11/27 12:45:46;;;;;;;0.77;0.25;;;20.90;27.30;21.40;91515.00;;;;10413325;28;45504;-61
2021/11/27 12:51:19;;;;;;;;;;;20.90;27.00;21.60;91536.00;;;;10378056;28;46127;-61
2021/11/27 12:56:19;;;;;;;0.45;0.20;;;21.10;26.70;21.80;91537.00;;;;10381770;28;45189;-61
2021/11/27 13:01:32;;;;;;;0.95;0.10;;;21.20;26.70;21.50;91540.00;;;;10341087;28;46503;-62
2021/11/27 13:06:33;;;;;;;0.50;0.10;;;21.20;26.90;21.40;91537.00;;;;10356277;28;45534;-62
2021/11/27 13:11:41;;;;;;;0.32;0.13;;;21.10;26.80;21.40;91535.00;;;;10367392;28;46604;-62
2021/11/27 13:16:41;;;;;;;0.63;0.13;;;21.10;26.90;21.40;91525.00;;;;10350307;28;46419;-62
2021/11/27 13:21:42;;;;;;;3.83;0.20;;;21.10;26.80;21.40;91542.00;;;;10357287;28;45451;-62
2021/11/27 13:26:43;;;;;;;0.30;0.10;;;21.10;26.80;21.40;91537.00;;;;10358295;28;45447;-62
2021/11/27 13:31:43;;;;;;;0.17;0.10;;;21.00;26.60;21.40;91532.00;;;;10355151;28;45253;-62
2021/11/27 13:36:50;;;;;;;3.42;0.20;;;21.00;26.70;21.40;91529.00;;;;10335791;28;45515;-63
2021/11/27 13:42:03;;;;;;;1.38;0.25;;;21.00;26.70;21.50;91514.00;;;;10352038;28;47232;-62
2021/11/27 13:47:06;;;;;;;2.08;0.30;;;21.10;26.80;21.50;91532.00;;;;10360164;28;47761;-64
2021/11/27 13:52:21;;;;;;;1.80;0.10;;;21.10;26.70;21.60;91539.00;;;;10363170;28;45573;-62
2021/11/27 13:57:24;;;;;;;0.65;0.20;;;21.10;27.20;21.60;91545.00;;;;10357638;28;45591;-63
2021/11/27 14:02:24;;;;;;;1.85;0.82;;;21.10;27.50;21.60;91553.00;;;;10380699;28;47133;-61
2021/11/27 14:07:39;;;;;;;1.27;0.20;;;21.10;27.80;21.60;91566.00;;;;10368973;28;45415;-63
2021/11/27 14:12:48;;;;;;;0.52;0.28;;;21.10;28.00;21.60;91588.00;;;;10344118;28;45492;-62
2021/11/27 14:18:14;;;;;;;0.82;0.20;;;21.10;28.10;21.60;91597.00;;;;10326624;28;47166;-62
2021/11/27 14:23:28;;;;;;;0.38;0.20;;;21.10;27.80;21.70;91613.00;;;;10368101;28;46079;-61
2021/11/27 14:28:31;;;;;;;0.93;0.30;;;21.10;27.50;21.70;91606.00;;;;10374794;28;45607;-61
2021/11/27 14:33:32;;;;;;;1.00;0.30;;;21.20;27.40;21.80;91618.00;;;;10363694;28;46420;-64
2021/11/27 14:38:44;;;;;;;32.40;1.63;;;21.20;27.30;21.70;91622.00;;;;10334877;28;46722;-61
2021/11/27 14:44:05;;;;;;;1.92;0.20;;;21.20;28.00;21.60;91638.00;;;;10393634;28;45491;-64
2021/11/27 14:49:47;;;;;;;1.10;0.13;;;21.10;27.40;21.60;91619.00;;;;10375590;28;47166;-63
2021/11/27 14:54:56;;;;;;;0.47;0.10;;;21.10;27.30;21.60;91639.00;;;;10362236;28;48336;-62
2021/11/27 15:00:17;;;;;;;1.08;0.13;;;21.10;27.10;21.50;91627.00;;;;10375463;28;45205;-61
2021/11/27 15:05:20;;;;;;;0.20;0.05;;;21.00;26.90;21.60;91637.00;;;;10393140;28;47305;-64
2021/11/27 15:10:21;;;;;;;0.20;0.10;;;21.10;26.80;21.60;91632.00;;;;10382347;28;45430;-64
2021/11/27 15:15:24;;;;;;;0.95;0.20;;;21.10;26.90;21.60;91638.00;;;;10357068;28;47471;-63
2021/11/27 15:20:24;;;;;;;0.73;0.40;;;21.10;26.90;21.60;91640.00;;;;10385388;28;45432;-66
2021/11/27 15:25:25;;;;;;;1.50;0.73;;;21.10;26.80;21.60;91645.00;;;;10382541;28;45188;-61
2021/11/27 15:30:27;;;;;;;1.73;0.70;;;21.10;27.00;21.60;91634.00;;;;10379179;28;45588;-64
2021/11/27 15:35:27;;;;;;;1.33;0.60;;;21.10;26.80;21.60;91641.00;;;;10381343;28;47479;-62
2021/11/27 15:40:28;;;;;;;1.70;0.73;;;21.10;26.70;21.60;91647.00;;;;10398377;28;46636;-63
2021/11/27 15:45:30;;;;;;;1.63;0.77;;;21.10;26.70;21.60;91643.00;;;;10396965;28;48045;-60
2021/11/27 15:50:30;;;;;;;1.40;0.80;;;21.10;26.70;21.60;91638.00;;;;10382192;28;45742;-64
2021/11/27 15:55:31;;;;;;;1.15;0.80;;;21.10;26.60;21.60;91646.00;;;;10397320;28;47245;-64
2021/11/27 16:00:32;;;;;;;1.85;0.70;;;21.10;26.50;21.60;91655.00;;;;10379956;28;47645;-62
2021/11/27 16:05:32;;;;;;;1.85;0.85;;;21.10;26.40;21.60;91672.00;;;;10362039;28;45348;-62
2021/11/27 16:10:33;;;;;;;2.30;0.90;;;21.10;26.40;21.60;91655.00;;;;10337916;28;46570;-65
2021/11/27 16:15:34;;;;;;;1.58;0.90;;;21.10;26.40;21.60;91675.00;;;;10373747;28;48466;-61
2021/11/27 16:20:34;;;;;;;2.08;0.75;;;21.10;26.20;21.60;91676.00;;;;10375656;28;47529;-62
2021/11/27 16:25:35;;;;;;;1.77;1.00;;;21.10;26.30;21.60;91677.00;;;;10337685;28;45731;-63
2021/11/27 16:30:39;;;;;;;2.25;0.93;;;21.10;26.50;21.60;91683.00;;;;10348289;28;45316;-63
2021/11/27 16:35:39;;;;;;;1.48;0.80;;;21.10;26.30;21.60;91690.00;;;;10384179;28;45238;-64
2021/11/27 16:40:42;;;;;;;2.15;0.85;;;21.10;26.40;21.60;91682.00;;;;10374631;28;46433;-63
2021/11/27 16:45:43;;;;;;;0.98;0.70;;;21.10;26.30;21.60;91685.00;;;;10375218;28;46430;-61
2021/11/27 16:50:44;;;;;;;1.45;0.93;;;21.10;26.30;21.60;91667.00;;;;10372244;28;46271;-62
2021/11/27 16:55:45;;;;;;;1.90;1.23;;;21.20;26.10;21.70;91685.00;;;;10367036;28;46194;-59
2021/11/27 17:00:45;;;;;;;1.20;0.90;;;21.20;26.20;21.50;91679.00;;;;10380409;28;45625;-62
2021/11/27 17:05:52;;;;;;;1.48;0.93;;;21.10;26.30;21.60;91656.00;;;;10396290;28;45309;-61
2021/11/27 17:10:57;;;;;;;1.55;1.00;;;21.10;25.90;21.70;91691.00;;;;10397075;28;46418;-61
2021/11/27 17:15:58;;;;;;;0.88;0.70;;;21.20;25.90;21.70;91699.00;;;;10392533;28;45257;-62
2021/11/27 17:20:59;;;;;;;1.33;0.85;;;21.20;26.10;21.70;91689.00;;;;10393259;28;45273;-63
2021/11/27 17:26:00;;;;;;;3.03;1.10;;;21.20;25.80;21.70;91710.00;;;;10378603;28;46680;-61
2021/11/27 17:31:00;;;;;;;2.05;0.88;;;21.20;25.80;21.70;91708.00;;;;10397105;28;45444;-62
2021/11/27 17:36:03;;;;;;;2.35;0.98;;;21.20;25.70;21.70;91709.00;;;;10378938;28;46408;-63
2021/11/27 17:41:03;;;;;;;1.17;0.90;;;21.20;25.80;21.70;91708.00;;;;10378874;28;45649;-61
2021/11/27 17:46:04;;;;;;;1.92;1.00;;;21.30;25.80;21.70;91706.00;;;;10396294;28;46105;-61
2021/11/27 17:51:06;;;;;;;1.45;0.98;;;21.20;25.60;21.70;91712.00;;;;10378680;28;46886;-58
2021/11/27 17:56:07;;;;;;;1.50;1.08;;;21.20;25.90;21.70;91729.00;;;;10378641;28;45557;-62
2021/11/27 18:01:08;;;;;;;2.17;1.10;;;21.20;25.70;21.70;91721.00;;;;10377996;28;45440;-62
2021/11/27 18:06:09;;;;;;;3.38;1.88;;;21.20;25.70;21.70;91722.00;;;;10394341;28;46554;-58
2021/11/27 18:11:11;;;;;;;2.47;1.52;;;21.20;25.80;21.70;91718.00;;;;10395150;28;47996;-63
2021/11/27 18:16:12;;;;;;;4.22;2.13;;;21.20;25.70;21.70;91718.00;;;;10378629;28;45563;-59
2021/11/27 18:21:34;;;;;;;2.95;1.65;;;21.20;25.00;21.60;91729.00;;;;10377833;28;45279;-61
2021/11/27 18:31:54;;;;;;;2.72;1.50;;;21.20;25.20;21.70;91729.00;;;;10395147;28;45208;-59
2021/11/27 18:36:55;;;;;;;2.75;1.30;;;21.20;25.40;21.70;91719.00;;;;10392870;28;46659;-62
2021/11/27 18:41:56;;;;;;;2.25;1.40;;;21.20;25.50;21.70;91736.00;;;;10393746;28;47404;-59
2021/11/27 18:46:56;;;;;;;2.97;1.45;;;21.20;25.60;21.70;91716.00;;;;10377335;28;45311;-59
2021/11/27 18:51:58;;;;;;;2.33;1.17;;;21.20;25.80;21.80;91723.00;;;;10375564;28;47267;-61
2021/11/27 18:57:00;;;;;;;2.17;1.23;;;21.20;25.80;21.70;91738.00;;;;10372070;28;45484;-59
2021/11/27 19:02:02;;;;;;;3.47;1.10;;;21.20;25.80;21.80;91748.00;;;;10392879;28;45244;-59
2021/11/27 19:07:03;;;;;;;1.98;1.00;;;21.20;25.70;21.70;91750.00;;;;10390325;28;46504;-60
2021/11/27 19:12:06;;;;;;;1.67;1.08;;;21.20;25.70;21.70;91760.00;;;;10371815;28;45185;-60
2021/11/27 19:17:07;;;;;;;2.22;1.25;;;21.20;25.70;21.70;91765.00;;;;10376558;28;46245;-60
2021/11/27 19:22:07;;;;;;;3.28;1.17;;;21.20;25.70;21.70;91777.00;;;;10364695;28;45565;-59
2021/11/27 19:27:09;;;;;;;4.38;1.70;;;21.20;25.70;21.70;91785.00;;;;10388625;28;45300;-62
2021/11/27 19:32:10;;;;;;;3.47;1.80;;;21.20;25.60;21.70;91772.00;;;;10367725;28;45480;-59
2021/11/27 19:37:10;;;;;;;3.80;2.00;;;21.20;25.60;21.70;91801.00;;;;10375991;28;46590;-60
2021/11/27 19:42:11;;;;;;;3.80;2.17;;;21.20;25.60;21.70;91798.00;;;;10392884;28;45235;-60
2021/11/27 19:47:12;;;;;;;5.50;2.45;;;21.10;25.60;21.70;91802.00;;;;10334720;28;46173;-60
2021/11/27 19:52:12;;;;;;;5.35;2.38;;;21.20;25.60;21.70;91810.00;;;;10356597;28;48314;-59
2021/11/27 19:57:13;;;;;;;3.67;2.33;;;21.20;25.60;21.70;91823.00;;;;10341306;28;46269;-60
2021/11/27 20:02:14;;;;;;;4.78;2.60;;;21.20;25.60;21.70;91822.00;;;;10341396;28;45483;-60
2021/11/27 20:07:15;;;;;;;4.65;2.70;;;21.20;25.60;21.70;91812.00;;;;10341161;28;45226;-60
2021/11/27 20:12:16;;;;;;;5.57;2.80;;;21.20;25.60;21.70;91795.00;;;;10340974;28;46985;-59
2021/11/27 20:17:17;;;;;;;5.60;2.63;;;21.20;25.50;21.80;91800.00;;;;10357066;28;47145;-59
2021/11/27 20:22:18;;;;;;;5.38;2.67;;;21.20;25.60;21.80;91794.00;;;;10340575;28;47172;-60
2021/11/27 20:27:19;;;;;;;3.47;2.35;;;21.20;25.60;21.80;91795.00;;;;10357281;28;45587;-60
2021/11/27 20:32:20;;;;;;;4.63;2.50;;;21.20;25.60;21.80;91797.00;;;;10340605;28;45253;-59
2021/11/27 20:37:20;;;;;;;4.70;2.45;;;21.20;25.60;21.80;91792.00;;;;10357826;28;45110;-62
2021/11/27 20:42:21;;;;;;;4.40;2.10;;;21.20;25.60;21.80;91795.00;;;;10358072;28;45402;-60
2021/11/27 20:47:22;;;;;;;3.60;2.00;;;21.20;25.60;21.80;91801.00;;;;10356087;28;46871;-60
2021/11/27 20:52:23;;;;;;;3.80;2.08;;;21.20;25.70;21.80;91800.00;;;;10340002;28;45113;-59
2021/11/27 20:57:24;;;;;;;3.10;1.75;;;21.20;25.60;21.80;91774.00;;;;10355964;28;47271;-62
2021/11/27 21:02:25;;;;;;;3.60;1.92;;;21.20;25.70;21.80;91787.00;;;;10338379;28;47301;-59
2021/11/27 21:07:26;;;;;;;2.50;1.55;;;21.20;25.70;21.80;91782.00;;;;10356855;28;46044;-61
2021/11/27 21:12:26;;;;;;;3.17;1.60;;;21.20;25.60;21.80;91777.00;;;;10339488;28;45317;-60
2021/11/27 21:17:28;;;;;;;3.10;1.63;;;21.30;25.70;21.70;91781.00;;;;10356456;28;45374;-59
2021/11/27 21:22:30;;;;;;;3.38;1.60;;;21.20;25.60;21.70;91779.00;;;;10338804;28;47293;-62
2021/11/27 21:27:39;;;;;;;3.47;1.42;;;21.20;25.60;21.70;91787.00;;;;10296105;28;47229;-59
2021/11/27 21:32:40;;;;;;;3.13;1.65;;;21.20;25.50;21.60;91781.00;;;;10410401;28;45498;-59
2021/11/27 21:37:41;;;;;;;2.80;1.55;;;21.10;25.40;21.60;91783.00;;;;10436843;28;47399;-60
2021/11/27 21:42:43;;;;;;;2.78;1.55;;;21.10;25.40;21.50;91783.00;;;;10384736;28;45244;-60
2021/11/27 21:47:44;;;;;;;2.38;1.35;;;21.10;25.40;21.50;91791.00;;;;10396306;28;45500;-60
2021/11/27 21:52:44;;;;;;;2.47;1.33;;;21.00;25.30;21.60;91785.00;;;;10377789;28;45499;-60
2021/11/27 21:57:46;;;;;;;3.20;1.52;;;21.00;25.30;21.50;91767.00;;;;10396223;28;46570;-59
2021/11/27 22:02:46;;;;;;;2.03;1.17;;;21.00;25.30;21.50;91770.00;;;;10377828;28;46927;-60
2021/11/27 22:07:47;;;;;;;2.55;1.40;;;21.00;25.20;21.50;91782.00;;;;10426655;28;45398;-60
2021/11/27 22:12:48;;;;;;;2.15;1.27;;;21.00;25.20;21.50;91801.00;;;;10418544;28;45479;-59
2021/11/27 22:17:48;;;;;;;1.83;1.15;;;20.90;25.10;21.40;91785.00;;;;10419064;28;45220;-60